Time;durP1;ratioP1;P1;durP2;ratioP2;P2;SDS_P1;SDS_P2;PMS_P1;PMS_P2;Temp;Humidity;BMP_temperature;BMP_pressure;BME280_temperature;BME280_humidity;BME280_pressure;Samples;Min_cycle;Max_cycle;Signal;HPM_P1;HPM_P2
2022/07/07 00:00:37;;;;;;;7.70;5.18;;;;;;;30.12;42.02;101033.31;143729;573;45012;-84
2022/07/07 00:03:04;;;;;;;8.68;5.15;;;;;;;30.13;41.90;101024.66;143723;676;47002;-83
2022/07/07 00:05:31;;;;;;;7.75;5.15;;;;;;;30.14;41.57;101026.28;143731;599;45010;-84
2022/07/07 00:07:58;;;;;;;8.02;4.70;;;;;;;30.13;42.17;101023.84;143728;583;46010;-84
2022/07/07 00:10:25;;;;;;;7.82;4.78;;;;;;;30.14;39.68;101026.28;143723;688;45012;-83
2022/07/07 00:12:52;;;;;;;6.93;4.15;;;;;;;30.17;40.36;101033.16;143727;606;45925;-83
2022/07/07 00:15:20;;;;;;;4.72;3.65;;;;;;;30.17;39.54;101027.63;143731;608;45010;-84
2022/07/07 00:17:47;;;;;;;5.68;3.92;;;;;;;30.19;38.03;101019.75;143725;579;47010;-83
2022/07/07 00:20:14;;;;;;;6.18;3.70;;;;;;;30.19;37.13;101020.59;143730;567;45012;-83
2022/07/07 00:22:41;;;;;;;4.60;3.72;;;;;;;30.18;37.67;101007.09;143725;610;46006;-84
2022/07/07 00:25:08;;;;;;;7.00;4.53;;;;;;;30.19;37.64;101012.28;143731;605;45010;-85
2022/07/07 00:27:36;;;;;;;5.53;3.75;;;;;;;30.21;36.95;101011.94;143702;583;56006;-85
2022/07/07 00:30:04;;;;;;;5.97;3.05;;;;;;;30.20;36.20;100999.22;143730;627;45926;-83
2022/07/07 00:32:31;;;;;;;6.40;3.67;;;;;;;30.21;35.73;100998.09;143728;569;46006;-84
2022/07/07 00:34:58;;;;;;;16.45;4.12;;;;;;;30.22;34.69;100992.25;143723;582;46004;-84
2022/07/07 00:37:25;;;;;;;5.05;3.30;;;;;;;30.21;35.78;100998.94;143729;568;45923;-84
2022/07/07 00:39:52;;;;;;;5.07;3.40;;;;;;;30.22;35.33;100992.25;143727;607;47004;-84
2022/07/07 00:42:19;;;;;;;4.93;3.37;;;;;;;30.27;35.04;101007.88;143729;592;45924;-83
2022/07/07 00:44:47;;;;;;;7.80;3.75;;;;;;;30.26;34.55;101003.47;143730;588;46004;-85
2022/07/07 00:47:15;;;;;;;4.10;3.37;;;;;;;30.29;35.38;101010.31;143729;578;45923;-84
2022/07/07 00:49:42;;;;;;;6.87;3.67;;;;;;;30.27;34.01;101013.44;143721;579;48004;-83
2022/07/07 00:52:10;;;;;;;5.57;4.22;;;;;;;30.25;34.67;101008.22;143729;626;45925;-84
2022/07/07 00:54:37;;;;;;;7.70;3.50;;;;;;;30.19;34.69;101012.28;143730;615;46002;-83
2022/07/07 00:57:06;;;;;;;21.75;5.03;;;;;;;30.15;33.85;101007.72;143729;569;45922;-82
2022/07/07 00:59:34;;;;;;;3.55;3.20;;;;;;;30.17;34.69;101016.53;143723;616;45012;-84
2022/07/07 01:02:02;;;;;;;5.62;3.30;;;;;;;30.19;34.01;101008.69;143720;597;47009;-83
2022/07/07 01:04:29;;;;;;;7.00;3.10;;;;;;;30.15;33.83;100999.41;143731;569;45010;-85
2022/07/07 01:06:56;;;;;;;6.32;3.17;;;;;;;30.14;33.27;101006.09;143725;598;47012;-82
2022/07/07 01:09:24;;;;;;;4.90;3.17;;;;;;;30.09;33.47;101010.66;143730;605;45013;-83
2022/07/07 01:11:56;;;;;;;3.80;3.30;;;;;;;30.03;33.60;101013.91;143728;599;45925;-84
2022/07/07 01:14:25;;;;;;;6.72;3.67;;;;;;;30.08;33.42;101003.47;143728;591;47002;-83
2022/07/07 01:16:53;;;;;;;6.87;3.37;;;;;;;30.13;33.74;101019.13;143720;575;48010;-83
2022/07/07 01:19:21;;;;;;;7.28;2.83;;;;;;;30.06;33.86;101011.28;143726;590;47004;-83
2022/07/07 01:22:19;;;;;;;6.28;3.33;;;;;;;30.03;33.33;101024.97;143727;666;46008;-87
2022/07/07 01:24:48;;;;;;;5.20;3.20;;;;;;;30.05;33.49;101015.19;143721;679;47004;-84
2022/07/07 01:27:20;;;;;;;3.72;3.20;;;;;;;30.09;33.43;101013.41;143726;567;47010;-85
2022/07/07 01:29:49;;;;;;;4.60;2.80;;;;;;;30.06;33.74;101002.97;143728;570;46006;-86
2022/07/07 01:32:16;;;;;;;3.42;2.55;;;;;;;30.10;34.37;101003.13;143725;683;46008;-83
2022/07/07 01:34:44;;;;;;;6.18;3.10;;;;;;;30.06;33.97;101004.94;143731;684;45010;-83
2022/07/07 01:37:12;;;;;;;4.65;3.12;;;;;;;30.05;33.79;101000.56;143729;597;45922;-83
2022/07/07 01:39:40;;;;;;;6.97;3.17;;;;;;;30.03;34.41;101011.13;143727;651;46006;-84
2022/07/07 01:42:07;;;;;;;6.32;2.80;;;;;;;30.07;34.25;100999.06;143723;567;48004;-84
2022/07/07 01:44:35;;;;;;;5.57;2.75;;;;;;;30.05;33.98;101006.87;143729;632;47006;-83
2022/07/07 01:47:03;;;;;;;3.12;2.75;;;;;;;30.03;34.19;101003.63;143720;641;47012;-84
2022/07/07 01:49:31;;;;;;;5.65;2.90;;;;;;;30.05;34.20;101006.09;143714;600;48012;-83
2022/07/07 01:51:59;;;;;;;3.22;2.85;;;;;;;30.02;34.23;100996.47;143729;581;45925;-83
2022/07/07 01:54:27;;;;;;;4.35;2.80;;;;;;;29.97;34.23;100991.09;143730;588;46006;-83
2022/07/07 01:56:55;;;;;;;10.68;3.00;;;;;;;29.89;32.25;100992.69;143723;584;47010;-85
2022/07/07 01:59:22;;;;;;;11.80;2.45;;;;;;;29.93;31.95;100985.34;143725;605;48004;-83
2022/07/07 02:01:49;;;;;;;5.07;2.40;;;;;;;29.98;33.02;100994.66;143726;608;47009;-84
2022/07/07 02:04:16;;;;;;;8.63;2.67;;;;;;;29.97;31.84;100993.03;143724;601;49004;-84
2022/07/07 02:06:43;;;;;;;12.45;3.12;;;;;;;29.91;33.02;100975.75;143712;574;53027;-85
2022/07/07 02:09:10;;;;;;;4.60;2.80;;;;;;;29.90;32.51;100988.78;143728;602;46006;-83
2022/07/07 02:11:37;;;;;;;10.68;7.05;;;;;;;29.88;31.51;101004.06;143726;613;47008;-83
2022/07/07 02:14:05;;;;;;;12.82;2.62;;;;;;;29.86;31.55;100984.19;143719;583;47004;-81
2022/07/07 02:16:33;;;;;;;7.90;2.42;;;;;;;29.88;30.52;100993.00;143727;595;46029;-83
2022/07/07 02:19:02;;;;;;;7.30;2.40;;;;;;;29.91;31.69;100978.50;143726;589;47006;-83
2022/07/07 02:21:29;;;;;;;4.10;2.40;;;;;;;29.89;34.03;100987.16;143727;632;46002;-83
2022/07/07 02:23:56;;;;;;;9.40;2.62;;;;;;;29.84;32.96;100972.63;143728;589;47004;-83
2022/07/07 02:26:23;;;;;;;9.20;2.35;;;;;;;29.76;30.84;100963.16;143728;629;46010;-84
2022/07/07 02:28:50;;;;;;;10.30;2.72;;;;;;;29.79;30.03;100970.84;143726;609;47006;-83
2022/07/07 02:31:18;;;;;;;6.47;2.42;;;;;;;29.83;30.73;100973.78;143728;595;45925;-82
2022/07/07 02:33:45;;;;;;;10.05;2.47;;;;;;;29.88;30.04;100973.63;143729;584;46004;-82
2022/07/07 02:36:13;;;;;;;7.68;2.22;;;;;;;29.89;30.26;100965.00;143728;634;46010;-83
2022/07/07 02:38:40;;;;;;;6.87;2.05;;;;;;;29.89;29.96;100962.22;143719;577;47006;-83
2022/07/07 02:41:08;;;;;;;12.07;2.95;;;;;;;29.89;30.05;100964.16;143726;606;46006;-82
2022/07/07 02:43:35;;;;;;;3.85;1.62;;;;;;;29.88;29.55;100968.06;143721;665;49002;-82
2022/07/07 02:46:03;;;;;;;9.68;2.20;;;;;;;29.90;30.30;100977.72;143728;647;46011;-82
2022/07/07 02:48:30;;;;;;;8.45;2.40;;;;;;;29.90;30.09;100966.63;143728;572;45928;-84
2022/07/07 02:50:58;;;;;;;4.70;2.15;;;;;;;29.93;31.13;100987.31;143728;591;45925;-82
2022/07/07 02:53:24;;;;;;;9.75;2.33;;;;;;;29.90;31.24;100969.41;143725;593;47004;-83
2022/07/07 02:55:51;;;;;;;3.92;2.12;;;;;;;29.94;31.72;100980.63;143727;579;47010;-83
2022/07/07 02:58:23;;;;;;;10.82;2.65;;;;;;;29.97;31.50;100976.41;143728;566;45926;-83
2022/07/07 03:00:51;;;;;;;10.00;2.75;;;;;;;29.98;31.37;100983.59;143728;573;45925;-83
2022/07/07 03:03:18;;;;;;;3.65;2.30;;;;;;;29.98;31.24;100981.66;143724;576;45010;-82
2022/07/07 03:05:45;;;;;;;4.37;2.62;;;;;;;29.94;31.25;100980.63;143729;592;45922;-83
2022/07/07 03:08:12;;;;;;;4.05;2.37;;;;;;;29.97;31.07;100977.25;143713;676;48004;-83
2022/07/07 03:10:39;;;;;;;3.42;2.37;;;;;;;30.01;30.55;100983.75;143729;569;45925;-82
2022/07/07 03:13:07;;;;;;;5.32;2.37;;;;;;;30.03;31.26;100986.22;143724;573;47004;-82
2022/07/07 03:15:33;;;;;;;13.93;3.35;;;;;;;29.99;31.36;100993.53;143728;620;46004;-82
2022/07/07 03:18:00;;;;;;;6.75;2.60;;;;;;;29.98;31.25;100987.19;143723;619;47006;-80
2022/07/07 03:20:27;;;;;;;12.77;3.22;;;;;;;29.99;30.96;101001.84;143729;583;45925;-82
2022/07/07 03:22:54;;;;;;;5.82;2.80;;;;;;;29.96;30.84;101008.84;143722;575;47004;-82
2022/07/07 03:25:21;;;;;;;18.98;3.20;;;;;;;29.97;31.29;101004.94;143729;616;45923;-83
2022/07/07 03:27:57;;;;;;;3.83;2.50;;;;;;;30.00;30.95;101020.91;143714;593;48004;-82
2022/07/07 03:30:36;;;;;;;11.15;3.05;;;;;;;30.03;31.31;101017.47;143726;586;46004;-84
2022/07/07 03:33:04;;;;;;;8.77;2.97;;;;;;;30.03;30.82;101020.25;143728;620;47006;-81
2022/07/07 03:35:31;;;;;;;8.18;3.08;;;;;;;30.06;31.04;101021.56;143722;598;47010;-83
2022/07/07 03:37:58;;;;;;;9.77;2.55;;;;;;;30.08;30.14;101025.62;143727;569;47004;-81
2022/07/07 03:40:25;;;;;;;9.50;2.47;;;;;;;30.08;30.77;101022.88;143717;642;49008;-82
2022/07/07 03:42:52;;;;;;;4.90;2.40;;;;;;;30.10;30.63;101044.69;143730;664;46006;-81
2022/07/07 03:45:19;;;;;;;8.63;2.42;;;;;;;30.12;30.19;101034.09;143721;591;48010;-83
2022/07/07 03:47:46;;;;;;;17.23;3.47;;;;;;;30.04;30.26;101038.50;143729;616;46004;-81
2022/07/07 03:50:13;;;;;;;7.70;2.42;;;;;;;30.03;29.87;101052.69;143711;575;51008;-82
2022/07/07 03:52:40;;;;;;;14.98;2.78;;;;;;;30.02;30.72;101049.06;143722;601;47006;-82
2022/07/07 03:55:09;;;;;;;6.57;2.25;;;;;;;30.05;30.58;101056.75;143728;585;46923;-81
2022/07/07 03:57:38;;;;;;;16.17;2.90;;;;;;;30.02;30.80;101046.31;143728;643;47004;-82
2022/07/07 04:00:06;;;;;;;10.82;3.10;;;;;;;30.00;30.74;101056.09;143730;621;45925;-83
2022/07/07 04:02:33;;;;;;;21.25;4.05;;;;;;;29.96;31.01;101055.94;143727;584;47002;-83
2022/07/07 04:05:00;;;;;;;17.58;3.05;;;;;;;29.95;30.74;101071.72;143727;632;46012;-83
2022/07/07 04:07:27;;;;;;;10.27;2.60;;;;;;;29.94;30.90;101064.50;143726;583;47004;-83
2022/07/07 04:09:54;;;;;;;18.90;3.33;;;;;;;29.95;30.91;101070.87;143726;678;47008;-82
2022/07/07 04:12:21;;;;;;;3.45;2.25;;;;;;;29.94;31.07;101077.56;143731;594;46006;-82
2022/07/07 04:14:48;;;;;;;7.43;2.55;;;;;;;29.91;31.33;101065.19;143725;610;47012;-82
2022/07/07 04:17:15;;;;;;;4.65;2.25;;;;;;;29.93;31.64;101073.16;143718;597;48004;-82
2022/07/07 04:19:42;;;;;;;7.85;2.17;;;;;;;29.95;31.90;101084.72;143728;574;46008;-82
2022/07/07 04:22:09;;;;;;;5.53;2.45;;;;;;;29.93;31.61;101093.34;143730;596;48002;-84
2022/07/07 04:24:37;;;;;;;5.87;2.33;;;;;;;29.95;31.74;101085.56;143726;582;46013;-82
2022/07/07 04:27:04;;;;;;;8.05;2.40;;;;;;;29.95;31.66;101080.03;143725;582;47006;-81
2022/07/07 04:29:31;;;;;;;10.00;2.10;;;;;;;29.97;31.76;101084.44;143730;567;45925;-82
2022/07/07 04:31:58;;;;;;;5.62;2.10;;;;;;;29.98;31.98;101081.34;143729;622;47002;-83
2022/07/07 04:34:25;;;;;;;9.27;2.70;;;;;;;29.98;31.73;101089.66;143726;568;47012;-81
2022/07/07 04:36:52;;;;;;;6.15;2.15;;;;;;;29.95;31.47;101098.56;143725;609;47006;-82
2022/07/07 04:39:19;;;;;;;7.82;2.00;;;;;;;29.97;31.55;101088.03;143728;587;46008;-82
2022/07/07 04:41:46;;;;;;;5.50;1.80;;;;;;;29.99;31.19;101093.22;143719;595;48006;-82
2022/07/07 04:44:13;;;;;;;3.65;2.28;;;;;;;30.02;31.40;101090.63;143726;566;46012;-82
2022/07/07 04:46:40;;;;;;;3.72;2.17;;;;;;;30.07;30.94;101095.22;143730;589;45927;-83
2022/07/07 04:49:07;;;;;;;3.62;2.00;;;;;;;30.11;31.12;101096.19;143727;568;46004;-82
2022/07/07 04:51:34;;;;;;;2.60;2.00;;;;;;;30.15;30.79;101091.63;143729;629;46008;-83
2022/07/07 04:54:01;;;;;;;7.82;2.20;;;;;;;30.16;30.23;101098.00;143720;712;47010;-82
2022/07/07 04:56:28;;;;;;;3.08;1.70;;;;;;;30.13;30.09;101102.22;143728;664;46015;-82
2022/07/07 04:58:55;;;;;;;3.35;1.60;;;;;;;30.19;29.92;101094.56;143727;572;46008;-81
2022/07/07 05:01:22;;;;;;;2.55;1.80;;;;;;;30.26;29.64;101097.69;143729;573;47006;-80
2022/07/07 05:03:49;;;;;;;2.25;1.60;;;;;;;30.27;29.08;101090.19;143728;576;46012;-81
2022/07/07 05:06:16;;;;;;;7.65;1.62;;;;;;;30.29;28.95;101102.59;143720;585;48004;-81
2022/07/07 05:08:43;;;;;;;4.93;2.22;;;;;;;30.35;28.97;101106.84;143727;585;46009;-83
2022/07/07 05:11:10;;;;;;;4.05;1.80;;;;;;;30.38;28.89;101108.94;143732;616;45010;-82
2022/07/07 05:13:37;;;;;;;2.25;1.80;;;;;;;30.42;29.31;101111.06;143727;581;47012;-82
2022/07/07 05:16:05;;;;;;;2.28;1.70;;;;;;;30.43;29.67;101105.22;143730;569;46005;-83
2022/07/07 05:18:32;;;;;;;4.97;1.80;;;;;;;30.43;29.19;101101.59;143727;592;47008;-82
2022/07/07 05:20:59;;;;;;;2.62;1.85;;;;;;;30.44;29.66;101098.53;143720;608;48004;-82
2022/07/07 05:23:26;;;;;;;1.83;1.60;;;;;;;30.42;28.97;101097.22;143725;586;47013;-82
2022/07/07 05:25:54;;;;;;;2.62;1.80;;;;;;;30.40;29.10;101101.13;143717;636;50004;-82
2022/07/07 05:28:20;;;;;;;4.37;1.67;;;;;;;30.38;29.30;101095.06;143729;575;45925;-82
2022/07/07 05:30:47;;;;;;;3.08;1.50;;;;;;;30.38;28.98;101097.06;143716;568;48004;-81
2022/07/07 05:33:14;;;;;;;4.20;1.80;;;;;;;30.35;28.74;101097.69;143727;570;46012;-82
2022/07/07 05:35:41;;;;;;;4.05;1.60;;;;;;;30.39;28.73;101095.91;143728;572;46004;-81
2022/07/07 05:38:23;;;;;;;2.58;1.42;;;;;;;30.48;28.52;101098.69;143731;589;45018;-85
2022/07/07 05:40:51;;;;;;;4.43;1.70;;;;;;;30.55;28.21;101101.78;143729;607;46015;-82
2022/07/07 05:43:18;;;;;;;3.15;1.80;;;;;;;30.66;27.62;101099.53;143721;588;47010;-81
2022/07/07 05:45:45;;;;;;;5.07;1.90;;;;;;;30.72;27.93;101091.84;143729;573;46010;-81
2022/07/07 05:48:12;;;;;;;4.93;1.60;;;;;;;30.82;27.78;101099.84;143721;572;48008;-82
2022/07/07 05:50:39;;;;;;;2.50;1.83;;;;;;;30.88;28.60;101095.78;143731;638;46017;-82
2022/07/07 05:53:06;;;;;;;3.62;1.75;;;;;;;30.88;28.09;101098.53;143722;644;48010;-82
2022/07/07 05:55:33;;;;;;;2.45;1.85;;;;;;;30.96;28.25;101103.25;143722;604;48004;-82
2022/07/07 05:58:00;;;;;;;2.87;1.70;;;;;;;31.02;28.56;101106.66;143730;588;45925;-82
2022/07/07 06:00:28;;;;;;;5.03;2.35;;;;;;;31.01;28.49;101099.47;143732;658;46007;-80
2022/07/07 06:02:55;;;;;;;4.55;2.00;;;;;;;31.05;30.30;101107.97;143722;588;47998;-80
2022/07/07 06:05:22;;;;;;;3.85;2.08;;;;;;;31.09;30.32;101103.38;143731;574;45928;-81
2022/07/07 06:07:50;;;;;;;6.50;1.90;;;;;;;31.12;31.14;101111.06;143726;634;46009;-82
2022/07/07 06:10:16;;;;;;;2.83;1.80;;;;;;;31.15;31.13;101113.19;143731;584;46002;-83
2022/07/07 06:12:43;;;;;;;3.22;2.20;;;;;;;31.19;31.72;101107.78;143722;606;47012;-83
2022/07/07 06:15:11;;;;;;;5.05;2.17;;;;;;;31.22;31.31;101124.63;143732;595;45012;-82
2022/07/07 06:17:38;;;;;;;4.05;2.10;;;;;;;31.24;30.84;101116.75;143727;666;46016;-82
2022/07/07 06:20:06;;;;;;;4.28;1.70;;;;;;;31.23;30.42;101129.03;143719;602;51006;-83
2022/07/07 06:22:33;;;;;;;2.87;1.80;;;;;;;31.26;30.10;101128.34;143729;585;46012;-82
2022/07/07 06:25:00;;;;;;;4.00;2.20;;;;;;;31.28;30.32;101139.94;143731;569;45012;-82
2022/07/07 06:27:27;;;;;;;8.88;1.98;;;;;;;31.26;29.97;101133.09;143728;615;46006;-82
2022/07/07 06:29:56;;;;;;;14.10;2.70;;;;;;;31.19;29.28;101136.38;143733;618;45010;-80
2022/07/07 06:32:22;;;;;;;5.45;1.92;;;;;;;31.14;30.06;101148.47;143728;768;46031;-83
2022/07/07 06:34:50;;;;;;;2.70;1.52;;;;;;;31.06;30.14;101145.69;143731;671;46006;-83
2022/07/07 06:37:16;;;;;;;3.30;2.47;;;;;;;30.99;30.05;101148.91;143730;591;46004;-81
2022/07/07 06:39:44;;;;;;;3.70;1.75;;;;;;;30.97;30.51;101154.00;143725;569;47004;-83
2022/07/07 06:42:11;;;;;;;8.10;1.87;;;;;;;30.94;30.31;101160.19;143730;589;46012;-82
2022/07/07 06:44:38;;;;;;;2.35;1.40;;;;;;;30.92;30.65;101151.41;143720;573;48004;-84
2022/07/07 06:47:05;;;;;;;2.12;1.65;;;;;;;30.95;29.77;101153.50;143730;621;45924;-83
2022/07/07 06:49:32;;;;;;;2.72;1.70;;;;;;;30.92;30.26;101149.41;143734;614;45010;-82
2022/07/07 06:51:59;;;;;;;2.47;1.75;;;;;;;30.91;30.25;101147.78;143729;598;46012;-83
2022/07/07 06:54:26;;;;;;;4.18;1.70;;;;;;;30.96;29.92;101152.37;143724;599;48010;-84
2022/07/07 06:56:53;;;;;;;3.30;1.90;;;;;;;31.03;29.98;101135.22;143729;643;45925;-83
2022/07/07 06:59:21;;;;;;;3.17;2.03;;;;;;;31.10;29.78;101138.31;143732;658;45011;-84
2022/07/07 07:01:48;;;;;;;3.55;2.15;;;;;;;31.20;29.89;101138.00;143731;587;45922;-83
2022/07/07 07:04:15;;;;;;;4.65;2.05;;;;;;;31.31;29.96;101135.69;143726;601;47004;-82
2022/07/07 07:06:42;;;;;;;12.30;2.17;;;;;;;31.32;29.32;101136.50;143729;589;45925;-84
2022/07/07 07:09:10;;;;;;;2.62;2.10;;;;;;;31.40;29.20;101139.25;143719;577;47002;-83
2022/07/07 07:11:38;;;;;;;2.78;1.65;;;;;;;31.49;29.51;101138.44;143731;645;45925;-83
2022/07/07 07:14:05;;;;;;;2.50;1.60;;;;;;;31.55;29.44;101129.59;143727;569;47004;-82
2022/07/07 07:16:32;;;;;;;2.50;1.67;;;;;;;31.62;28.94;101137.38;143728;624;47002;-83
2022/07/07 07:18:59;;;;;;;3.22;1.92;;;;;;;31.68;29.48;101138.81;143731;605;46013;-82
2022/07/07 07:21:26;;;;;;;6.12;2.20;;;;;;;31.77;29.25;101135.22;143729;579;46925;-85
2022/07/07 07:23:53;;;;;;;7.10;2.20;;;;;;;31.80;28.47;101131.78;143726;626;46016;-83
2022/07/07 07:26:20;;;;;;;4.75;1.80;;;;;;;31.88;28.30;101137.31;143723;600;51002;-83
2022/07/07 07:28:47;;;;;;;2.50;1.50;;;;;;;31.97;27.68;101128.94;143730;577;47000;-83
2022/07/07 07:31:14;;;;;;;4.20;1.40;;;;;;;32.01;26.18;101143.78;143729;630;47010;-85
2022/07/07 07:33:41;;;;;;;2.50;1.77;;;;;;;32.03;27.56;101129.53;143722;595;47004;-84
2022/07/07 07:36:09;;;;;;;3.53;1.40;;;;;;;32.10;26.59;101132.63;143730;580;45923;-83
2022/07/07 07:38:39;;;;;;;3.22;2.42;;;;;;;32.12;25.44;101135.06;143727;587;47006;-85
2022/07/07 07:41:12;;;;;;;2.28;1.30;;;;;;;32.17;27.09;101132.09;143725;608;48002;-86
2022/07/07 07:43:39;;;;;;;3.33;1.58;;;;;;;32.21;27.63;101144.97;143730;573;46002;-83
2022/07/07 07:46:19;;;;;;;4.53;1.42;;;;;;;32.27;27.12;101139.25;143731;567;45923;-86
2022/07/07 07:48:46;;;;;;;7.28;2.40;;;;;;;32.34;26.75;101134.78;143730;601;47000;-83
2022/07/07 07:51:15;;;;;;;4.37;1.98;;;;;;;32.44;27.57;101138.28;143730;581;46010;-84
2022/07/07 07:53:42;;;;;;;1.73;1.35;;;;;;;32.46;24.83;101136.81;143728;576;47004;-82
2022/07/07 07:56:09;;;;;;;3.78;2.55;;;;;;;32.54;25.20;101139.84;143730;642;45923;-84
2022/07/07 07:58:35;;;;;;;1.87;1.70;;;;;;;32.63;25.39;101143.41;143723;574;46006;-82
2022/07/07 08:01:04;;;;;;;3.28;2.87;;;;;;;32.69;25.22;101142.03;143723;567;46011;-84
2022/07/07 08:03:31;;;;;;;2.05;1.40;;;;;;;32.66;25.68;101145.47;143732;588;45012;-83
2022/07/07 08:05:58;;;;;;;1.73;1.20;;;;;;;32.70;25.48;101140.06;143726;589;47006;-83
2022/07/07 08:08:25;;;;;;;1.73;1.42;;;;;;;32.78;24.60;101137.22;143733;586;45010;-84
2022/07/07 08:10:52;;;;;;;2.72;1.83;;;;;;;32.76;24.15;101147.88;143726;598;47008;-83
2022/07/07 08:13:19;;;;;;;2.70;1.62;;;;;;;32.80;24.53;101137.69;143732;608;46002;-85
2022/07/07 08:15:46;;;;;;;5.32;1.98;;;;;;;32.89;25.33;101137.66;143725;671;48006;-83
2022/07/07 08:18:13;;;;;;;2.90;2.22;;;;;;;32.95;24.91;101149.37;143731;628;47002;-83
2022/07/07 08:20:41;;;;;;;1.55;1.37;;;;;;;33.01;24.86;101147.19;143729;573;45925;-84
2022/07/07 08:23:08;;;;;;;2.55;1.23;;;;;;;33.01;23.67;101136.06;143723;579;46002;-84
2022/07/07 08:25:35;;;;;;;8.30;2.50;;;;;;;33.07;24.50;101143.03;143724;618;48000;-82
2022/07/07 08:28:02;;;;;;;2.65;1.30;;;;;;;33.09;23.63;101143.50;143732;593;46002;-80
2022/07/07 08:30:29;;;;;;;2.08;1.80;;;;;;;33.11;23.92;101144.78;143716;581;56002;-84
2022/07/07 08:32:56;;;;;;;2.35;1.62;;;;;;;33.14;23.96;101142.47;143731;569;46002;-83
2022/07/07 08:35:23;;;;;;;2.40;1.30;;;;;;;33.11;24.76;101142.00;143724;651;47016;-83
2022/07/07 08:37:51;;;;;;;3.87;1.67;;;;;;;33.18;23.62;101143.44;143731;581;46002;-83
2022/07/07 08:40:18;;;;;;;1.85;1.42;;;;;;;33.22;23.36;101141.56;143722;582;47010;-82
2022/07/07 08:42:45;;;;;;;2.97;1.77;;;;;;;33.30;23.55;101134.28;143728;596;47004;-83
2022/07/07 08:45:13;;;;;;;1.70;1.45;;;;;;;33.39;24.73;101140.59;143728;637;46006;-83
2022/07/07 08:47:40;;;;;;;5.95;1.50;;;;;;;33.48;25.39;101127.38;143722;596;48000;-84
2022/07/07 08:50:07;;;;;;;2.12;1.60;;;;;;;33.48;23.87;101132.94;143727;574;46010;-85
2022/07/07 08:52:34;;;;;;;3.17;1.50;;;;;;;33.54;24.10;101131.56;143729;625;46004;-84
2022/07/07 08:55:06;;;;;;;4.95;1.20;;;;;;;33.58;24.68;101136.44;143726;595;48006;-83
2022/07/07 08:57:34;;;;;;;1.75;1.23;;;;;;;33.62;24.02;101129.03;143733;596;45013;-84
2022/07/07 09:00:01;;;;;;;2.05;1.20;;;;;;;33.70;24.21;101131.72;143727;581;48008;-85
2022/07/07 09:02:28;;;;;;;1.40;1.00;;;;;;;33.78;23.56;101134.72;143732;597;45012;-83
2022/07/07 09:04:55;;;;;;;3.65;1.20;;;;;;;33.86;24.08;101133.78;143732;605;45011;-84
2022/07/07 09:07:23;;;;;;;2.17;1.30;;;;;;;33.83;23.01;101117.78;143734;579;45016;-84
2022/07/07 09:09:55;;;;;;;2.05;1.12;;;;;;;33.92;23.07;101114.91;143731;719;46581;-84
2022/07/07 09:12:22;;;;;;;3.75;1.35;;;;;;;33.96;22.98;101113.84;143725;609;46002;-83
2022/07/07 09:14:52;;;;;;;2.67;1.45;;;;;;;33.97;23.41;101117.47;143731;573;45923;-83
2022/07/07 09:17:30;;;;;;;2.60;1.40;;;;;;;34.08;23.48;101112.19;143732;567;46014;-84
2022/07/07 09:20:09;;;;;;;1.70;1.37;;;;;;;34.14;22.56;101113.59;143729;591;46010;-84
2022/07/07 09:22:55;;;;;;;2.33;1.17;;;;;;;34.23;22.82;101108.72;143731;602;46002;-84
2022/07/07 09:25:24;;;;;;;3.65;1.70;;;;;;;34.29;22.27;101109.28;143729;607;45923;-83
2022/07/07 09:28:02;;;;;;;1.58;1.48;;;;;;;34.34;23.08;101097.84;143725;641;47004;-83
2022/07/07 09:30:50;;;;;;;2.15;1.23;;;;;;;34.39;23.19;101108.75;143730;586;46008;-85
2022/07/07 09:33:22;;;;;;;1.85;1.42;;;;;;;34.43;22.89;101108.88;143732;600;45012;-84
2022/07/07 09:38:36;;;;;;;2.25;1.60;;;;;;;34.52;22.81;101105.97;143726;569;45010;-83
2022/07/07 09:41:13;;;;;;;4.53;1.40;;;;;;;34.53;21.98;101110.38;143729;572;46030;-84
2022/07/07 09:43:53;;;;;;;2.40;1.35;;;;;;;34.52;23.22;101094.81;143725;599;47005;-85
2022/07/07 09:46:27;;;;;;;2.00;1.40;;;;;;;34.54;23.44;101093.31;143730;569;45924;-83
2022/07/07 09:48:56;;;;;;;1.92;1.40;;;;;;;34.62;22.42;101099.91;143732;573;46006;-84
2022/07/07 09:51:30;;;;;;;2.85;1.45;;;;;;;34.63;22.76;101092.31;143727;622;47010;-83
2022/07/07 09:54:21;;;;;;;4.82;1.98;;;;;;;34.70;22.94;101096.12;143731;586;46004;-83
2022/07/07 09:56:51;;;;;;;2.28;1.95;;;;;;;34.79;22.80;101086.81;143729;600;46005;-84
2022/07/07 09:59:22;;;;;;;2.37;1.62;;;;;;;34.85;23.03;101088.97;143727;572;48002;-80
2022/07/07 10:01:50;;;;;;;2.60;1.70;;;;;;;34.91;23.28;101097.87;143730;588;46010;-84
2022/07/07 10:04:22;;;;;;;3.10;1.65;;;;;;;34.97;22.83;101099.28;143718;630;47004;-84
2022/07/07 10:06:50;;;;;;;2.40;1.70;;;;;;;35.05;23.54;101083.53;143731;592;45925;-83
2022/07/07 10:09:19;;;;;;;3.45;1.90;;;;;;;35.10;22.86;101085.25;143731;566;46015;-85
2022/07/07 10:11:56;;;;;;;2.60;1.75;;;;;;;35.09;22.95;101078.06;143720;584;48010;-84
2022/07/07 10:14:32;;;;;;;2.40;2.20;;;;;;;35.05;24.27;101081.56;143726;572;47004;-83
2022/07/07 10:17:02;;;;;;;5.68;1.90;;;;;;;35.03;23.97;101077.50;143730;590;45925;-85
2022/07/07 10:19:29;;;;;;;3.70;2.20;;;;;;;35.09;23.84;101076.09;143729;592;47002;-84
2022/07/07 10:21:58;;;;;;;3.75;1.90;;;;;;;35.17;24.20;101066.72;143729;581;46010;-82
2022/07/07 10:24:29;;;;;;;6.82;2.08;;;;;;;35.20;23.48;101062.41;143729;606;47004;-87
2022/07/07 10:26:59;;;;;;;2.65;2.05;;;;;;;35.20;23.62;101066.00;143731;569;45925;-85
2022/07/07 10:29:46;;;;;;;3.00;1.95;;;;;;;35.21;24.50;101067.63;143726;629;45009;-84
2022/07/07 10:32:15;;;;;;;3.53;2.28;;;;;;;35.26;24.72;101060.16;143725;572;47012;-82
2022/07/07 10:34:53;;;;;;;2.05;1.80;;;;;;;35.29;24.67;101060.22;143727;612;48006;-86
2022/07/07 10:37:21;;;;;;;3.53;2.20;;;;;;;35.28;23.94;101050.22;143731;568;45924;-86
2022/07/07 10:39:50;;;;;;;3.00;2.33;;;;;;;35.32;24.26;101036.34;143715;579;52002;-84
2022/07/07 10:42:47;;;;;;;3.40;2.40;;;;;;;35.39;23.82;101044.13;143731;594;45923;-83
2022/07/07 10:45:15;;;;;;;2.35;1.70;;;;;;;35.43;23.66;101045.81;143732;614;45012;-84
2022/07/07 10:47:41;;;;;;;4.62;2.15;;;;;;;35.43;23.96;101043.03;143731;599;45925;-83
2022/07/07 10:50:29;;;;;;;3.28;2.03;;;;;;;35.47;23.27;101048.72;143732;609;46006;-83
2022/07/07 10:52:57;;;;;;;3.12;2.17;;;;;;;35.45;23.74;101045.47;143726;572;46012;-83
2022/07/07 10:55:51;;;;;;;3.25;2.53;;;;;;;35.53;24.08;101038.91;143716;594;51004;-84
2022/07/07 10:58:35;;;;;;;;;;;;;;;35.61;24.21;101034.28;143730;985;46007;-84
2022/07/07 11:01:07;;;;;;;;;;;;;;;35.51;23.11;101027.28;143742;982;45012;-82
2022/07/07 11:03:37;;;;;;;4.35;2.03;;;;;;;35.58;24.06;101032.22;143731;630;47012;-83
2022/07/07 11:06:05;;;;;;;3.30;2.20;;;;;;;35.59;22.75;101034.63;143726;648;47006;-83
2022/07/07 11:08:36;;;;;;;5.22;2.53;;;;;;;35.60;23.73;101032.66;143725;607;46008;-84
2022/07/07 11:11:05;;;;;;;3.28;2.60;;;;;;;35.57;22.56;101033.37;143730;601;46004;-83
2022/07/07 11:13:39;;;;;;;2.75;2.10;;;;;;;35.62;23.95;101033.13;143723;620;46008;-85
2022/07/07 11:16:19;;;;;;;4.40;2.12;;;;;;;35.67;22.73;101019.66;143723;598;47010;-85
2022/07/07 11:18:55;;;;;;;3.53;1.90;;;;;;;35.71;23.74;101021.75;143729;575;45925;-83
2022/07/07 11:21:39;;;;;;;3.17;2.20;;;;;;;35.72;22.87;101017.78;143722;569;46004;-85
2022/07/07 11:24:17;;;;;;;2.67;2.30;;;;;;;35.75;22.58;101012.25;143725;578;47010;-84
2022/07/07 11:26:54;;;;;;;4.45;2.12;;;;;;;35.81;23.28;101013.59;143723;585;47006;-85
2022/07/07 11:29:21;;;;;;;4.65;2.25;;;;;;;35.82;22.28;101008.81;143728;618;46004;-82
2022/07/07 11:31:48;;;;;;;2.95;2.40;;;;;;;35.80;23.12;101005.56;143731;630;45010;-84
2022/07/07 11:34:15;;;;;;;2.58;1.77;;;;;;;35.85;23.57;101008.09;143729;592;45923;-84